Time;durP1;ratioP1;P1;durP2;ratioP2;P2;SDS_P1;SDS_P2;PMS_P1;PMS_P2;Temp;Humidity;BMP_temperature;BMP_pressure;BME280_temperature;BME280_humidity;BME280_pressure;Samples;Min_cycle;Max_cycle;Signal;HPM_P1;HPM_P2
2021/07/01 00:00:55;;;;;;;11.85;7.97;;;;;;;18.55;61.73;97888.78;5081868;28;20019;-79
2021/07/01 00:03:20;;;;;;;14.18;8.35;;;;;;;18.57;61.71;97888.41;5091907;28;20054;-80
2021/07/01 00:05:45;;;;;;;8.82;5.53;;;;;;;18.54;61.64;97889.94;5090485;28;20024;-79
2021/07/01 00:08:11;;;;;;;8.50;5.07;;;;;;;18.51;61.61;97898.22;5090903;28;20377;-79
2021/07/01 00:10:37;;;;;;;6.90;5.25;;;;;;;18.53;61.67;97893.09;5094586;28;20438;-79
2021/07/01 00:13:03;;;;;;;6.82;5.45;;;;;;;18.55;61.75;97893.50;5091722;28;20043;-80
2021/07/01 00:15:30;;;;;;;8.45;5.22;;;;;;;18.59;61.81;97895.22;5091181;28;20031;-80
2021/07/01 00:17:56;;;;;;;9.07;6.22;;;;;;;18.60;61.70;97898.78;5097127;28;20084;-79
2021/07/01 00:20:22;;;;;;;7.45;6.07;;;;;;;18.56;62.01;97887.63;5092200;28;20036;-80
2021/07/01 00:22:50;;;;;;;11.48;7.05;;;;;;;18.59;62.02;97886.06;5091847;28;20024;-80
2021/07/01 00:25:16;;;;;;;10.13;7.00;;;;;;;18.64;62.31;97887.78;5094453;28;20059;-81
2021/07/01 00:27:42;;;;;;;10.57;6.88;;;;;;;18.66;62.42;97885.44;5081050;28;20038;-81
2021/07/01 00:30:09;;;;;;;11.18;7.40;;;;;;;18.64;62.19;97885.78;5090653;28;20020;-80
2021/07/01 00:32:35;;;;;;;12.40;7.07;;;;;;;18.64;62.44;97888.56;5091498;28;20020;-80
2021/07/01 00:35:01;;;;;;;10.30;6.90;;;;;;;18.61;62.62;97892.06;5093309;28;20020;-80
2021/07/01 00:37:29;;;;;;;9.75;6.97;;;;;;;18.60;62.65;97882.13;5096522;28;20027;-80
2021/07/01 00:39:55;;;;;;;9.88;6.90;;;;;;;18.60;62.75;97882.94;5098380;28;20024;-81
2021/07/01 00:42:20;;;;;;;9.80;7.15;;;;;;;18.64;62.97;97885.00;5095233;28;20110;-80
2021/07/01 00:44:46;;;;;;;9.13;7.10;;;;;;;18.64;62.82;97880.22;5096544;28;20107;-80
2021/07/01 00:47:11;;;;;;;13.13;6.90;;;;;;;18.64;62.90;97883.00;5096834;28;20027;-81
2021/07/01 00:49:36;;;;;;;9.20;6.38;;;;;;;18.62;62.92;97868.69;5094728;28;20024;-80
2021/07/01 00:52:03;;;;;;;9.20;6.00;;;;;;;18.67;63.40;97876.72;5099220;28;20035;-78
2021/07/01 00:54:29;;;;;;;8.18;5.82;;;;;;;18.70;63.10;97875.22;5091646;28;20032;-81
2021/07/01 00:56:54;;;;;;;9.40;4.97;;;;;;;18.73;62.70;97877.25;5094936;28;20035;-81
2021/07/01 00:59:20;;;;;;;6.65;4.30;;;;;;;18.75;62.82;97869.34;5098081;28;20379;-79
2021/07/01 01:01:46;;;;;;;8.02;4.43;;;;;;;18.76;62.51;97868.16;5096785;28;20024;-80
2021/07/01 01:04:11;;;;;;;6.32;4.57;;;;;;;18.73;62.46;97850.28;5101464;28;20023;-80
2021/07/01 01:06:37;;;;;;;7.07;4.60;;;;;;;18.75;62.30;97849.91;5096551;28;20523;-79
2021/07/01 01:09:08;;;;;;;5.47;3.75;;;;;;;18.77;62.46;97855.09;5095052;28;20698;-80
2021/07/01 01:11:33;;;;;;;6.18;4.35;;;;;;;18.74;62.19;97853.88;5095866;28;20028;-80
2021/07/01 01:13:59;;;;;;;7.53;4.38;;;;;;;18.72;62.20;97858.97;5091995;28;20361;-79
2021/07/01 01:16:24;;;;;;;5.95;4.43;;;;;;;18.70;61.99;97853.00;5093062;28;20430;-80
2021/07/01 01:18:50;;;;;;;5.47;4.25;;;;;;;18.65;61.89;97856.84;5096517;28;20531;-80
2021/07/01 01:21:17;;;;;;;5.75;4.13;;;;;;;18.61;62.18;97864.28;5092716;28;20031;-80
2021/07/01 01:23:43;;;;;;;6.78;4.95;;;;;;;18.57;62.09;97868.97;5092978;28;20123;-80
2021/07/01 01:26:08;;;;;;;7.35;4.47;;;;;;;18.53;61.96;97859.78;5094649;28;20030;-79
2021/07/01 01:28:37;;;;;;;7.05;4.50;;;;;;;18.51;62.05;97862.91;5100118;28;20456;-79
2021/07/01 01:31:04;;;;;;;6.68;4.53;;;;;;;18.50;61.85;97868.84;5096013;28;20032;-79
2021/07/01 01:33:29;;;;;;;7.15;4.45;;;;;;;18.48;62.13;97868.41;5077279;28;20111;-80
2021/07/01 01:35:54;;;;;;;6.25;4.47;;;;;;;18.49;62.20;97881.13;5091494;28;20119;-80
2021/07/01 01:38:21;;;;;;;5.20;4.10;;;;;;;18.49;62.00;97892.22;5092588;28;20043;-80
2021/07/01 01:40:50;;;;;;;5.82;4.57;;;;;;;18.51;61.83;97885.13;5091525;28;20392;-80
2021/07/01 01:43:17;;;;;;;6.13;4.22;;;;;;;18.52;62.12;97892.28;5097085;28;20031;-80
2021/07/01 01:45:44;;;;;;;6.00;4.30;;;;;;;18.52;61.88;97885.94;5101852;28;20235;-81
2021/07/01 01:48:09;;;;;;;8.38;4.72;;;;;;;18.51;61.99;97876.78;5092285;28;20437;-80
2021/07/01 01:50:35;;;;;;;6.93;4.82;;;;;;;18.52;62.03;97885.94;5091699;28;20107;-81
2021/07/01 01:53:01;;;;;;;8.13;6.18;;;;;;;18.54;62.21;97880.84;5092628;28;20030;-80
2021/07/01 01:55:26;;;;;;;6.97;5.10;;;;;;;18.53;62.10;97887.56;5104620;28;20023;-80
2021/07/01 01:57:52;;;;;;;7.90;5.82;;;;;;;18.53;61.90;97887.56;5100666;28;20052;-79
2021/07/01 02:00:20;;;;;;;7.90;5.57;;;;;;;18.52;62.32;97889.50;5095295;28;20462;-80
2021/07/01 02:02:46;;;;;;;8.95;6.05;;;;;;;18.52;62.35;97883.94;5090687;28;20468;-80
2021/07/01 02:05:12;;;;;;;8.27;5.63;;;;;;;18.52;62.44;97883.16;5098094;28;20480;-80
2021/07/01 02:07:38;;;;;;;10.18;6.03;;;;;;;18.50;62.63;97888.28;5109496;28;20027;-80
2021/07/01 02:10:07;;;;;;;9.60;5.55;;;;;;;18.50;62.35;97877.97;5102769;28;20435;-80
2021/07/01 02:12:32;;;;;;;9.37;5.73;;;;;;;18.48;62.47;97871.97;5091381;28;20032;-80
2021/07/01 02:14:59;;;;;;;7.55;4.57;;;;;;;18.42;62.44;97874.22;5106267;28;20044;-80
2021/07/01 02:17:24;;;;;;;6.95;4.30;;;;;;;18.40;62.42;97881.28;5109467;28;20084;-81
2021/07/01 02:19:50;;;;;;;4.68;4.00;;;;;;;18.36;62.68;97884.00;5098791;28;20426;-82
2021/07/01 02:22:15;;;;;;;6.47;3.90;;;;;;;18.32;62.73;97883.13;5090478;28;20035;-81
2021/07/01 02:24:41;;;;;;;6.60;4.38;;;;;;;18.29;62.67;97886.63;5108267;28;20157;-86
2021/07/01 02:27:08;;;;;;;6.40;3.90;;;;;;;18.26;62.44;97895.66;5087636;28;20028;-82
2021/07/01 02:29:33;;;;;;;7.43;4.15;;;;;;;18.22;62.49;97892.00;5105840;28;20020;-82
2021/07/01 02:31:59;;;;;;;9.45;4.05;;;;;;;18.18;62.56;97891.09;5113997;28;20031;-81
2021/07/01 02:34:24;;;;;;;7.68;4.07;;;;;;;18.15;62.39;97890.66;5103866;28;20024;-82
2021/07/01 02:36:49;;;;;;;5.97;3.35;;;;;;;18.15;62.47;97899.00;5095466;28;20036;-81
2021/07/01 02:39:15;;;;;;;4.63;3.80;;;;;;;18.17;62.62;97903.38;5111549;28;20394;-80
2021/07/01 02:41:40;;;;;;;6.28;4.20;;;;;;;18.14;62.42;97908.47;5112499;28;20450;-81
2021/07/01 02:44:05;;;;;;;5.30;3.90;;;;;;;18.14;62.63;97905.69;5110874;28;20380;-80
2021/07/01 02:46:32;;;;;;;6.00;4.00;;;;;;;18.10;62.41;97899.28;5096883;28;20032;-80
2021/07/01 02:48:57;;;;;;;5.32;3.70;;;;;;;18.09;62.24;97899.63;5098040;28;20035;-80
2021/07/01 02:51:23;;;;;;;4.07;3.50;;;;;;;18.06;62.28;97897.56;5094052;28;20387;-81
2021/07/01 02:53:48;;;;;;;5.95;3.70;;;;;;;18.04;62.27;97894.34;5106869;28;20393;-77
2021/07/01 02:56:13;;;;;;;5.47;3.28;;;;;;;18.04;62.27;97892.41;5111156;28;20051;-79
2021/07/01 02:58:39;;;;;;;3.70;3.05;;;;;;;18.04;62.32;97892.41;5096330;28;20024;-80
2021/07/01 03:01:04;;;;;;;7.55;3.70;;;;;;;18.05;62.56;97902.34;5104933;28;20563;-80
2021/07/01 03:03:29;;;;;;;4.60;3.50;;;;;;;18.05;62.29;97901.53;5114429;28;20411;-80
2021/07/01 03:05:55;;;;;;;4.35;3.50;;;;;;;18.02;62.25;97897.50;5115578;28;20480;-80
2021/07/01 03:08:20;;;;;;;5.18;3.70;;;;;;;18.02;62.37;97891.13;5104083;28;20077;-80
2021/07/01 03:10:45;;;;;;;5.47;3.63;;;;;;;18.02;62.49;97900.28;5095361;28;20472;-80
2021/07/01 03:13:11;;;;;;;4.22;3.22;;;;;;;18.02;62.28;97908.59;5096704;28;20111;-80
2021/07/01 03:15:37;;;;;;;7.10;6.40;;;;;;;18.01;62.29;97904.22;5096703;28;20050;-80
2021/07/01 03:18:03;;;;;;;5.65;3.72;;;;;;;18.00;62.51;97905.38;5110372;28;20039;-80
2021/07/01 03:20:28;;;;;;;4.68;3.78;;;;;;;17.98;62.37;97908.47;5098878;28;20028;-80
2021/07/01 03:22:54;;;;;;;5.25;3.90;;;;;;;18.02;62.45;97908.59;5095195;28;20411;-80
2021/07/01 03:25:19;;;;;;;4.75;3.33;;;;;;;18.05;62.32;97907.88;5095111;28;20048;-80
2021/07/01 03:27:44;;;;;;;5.40;3.83;;;;;;;18.07;62.40;97913.06;5098494;28;20384;-79
2021/07/01 03:30:11;;;;;;;5.00;3.55;;;;;;;18.07;62.14;97911.09;5113070;28;20032;-80
2021/07/01 03:32:36;;;;;;;6.15;3.53;;;;;;;18.05;62.44;97907.88;5114893;28;20057;-80
2021/07/01 03:35:02;;;;;;;7.20;3.63;;;;;;;18.08;62.51;97918.28;5076800;28;20024;-81
2021/07/01 03:37:28;;;;;;;4.75;3.47;;;;;;;18.08;62.24;97918.28;5094368;28;20472;-81
2021/07/01 03:39:53;;;;;;;4.22;3.50;;;;;;;18.10;62.39;97907.63;5095242;28;20049;-81
2021/07/01 03:42:21;;;;;;;5.68;3.08;;;;;;;18.14;62.42;97916.00;5113013;28;20032;-81
2021/07/01 03:44:46;;;;;;;5.70;3.47;;;;;;;18.15;62.34;97915.63;5096140;28;20032;-80
2021/07/01 03:47:12;;;;;;;6.32;4.90;;;;;;;18.17;62.39;97911.69;5097252;28;20031;-81
2021/07/01 03:49:37;;;;;;;3.30;3.00;;;;;;;18.18;62.38;97916.91;5094158;28;20035;-80
2021/07/01 03:52:03;;;;;;;3.47;3.17;;;;;;;18.20;62.38;97909.03;5094197;28;20403;-81
2021/07/01 03:54:30;;;;;;;4.05;2.97;;;;;;;18.23;62.26;97916.63;5106641;28;20027;-81
2021/07/01 03:56:57;;;;;;;5.88;2.80;;;;;;;18.23;62.14;97919.41;5092817;28;20468;-81
2021/07/01 03:59:22;;;;;;;5.65;2.85;;;;;;;18.25;62.27;97911.53;5099152;28;20040;-80
2021/07/01 04:01:48;;;;;;;3.78;2.40;;;;;;;18.29;62.21;97922.69;5098330;28;20028;-80
2021/07/01 04:04:13;;;;;;;5.35;2.63;;;;;;;18.29;62.20;97917.97;5096030;28;20043;-81
2021/07/01 04:06:39;;;;;;;4.03;2.50;;;;;;;18.30;62.45;97907.66;5099617;28;20031;-81
2021/07/01 04:09:05;;;;;;;2.90;2.60;;;;;;;18.33;62.23;97906.16;5106956;28;20043;-81
2021/07/01 04:11:31;;;;;;;5.93;2.45;;;;;;;18.36;62.58;97910.94;5096118;28;20016;-81
2021/07/01 04:13:56;;;;;;;3.83;2.67;;;;;;;18.38;62.15;97912.22;5112671;28;20046;-80
2021/07/01 04:16:21;;;;;;;3.40;2.72;;;;;;;18.45;62.46;97922.66;5103734;28;20024;-81
2021/07/01 04:18:47;;;;;;;4.13;2.90;;;;;;;18.51;62.38;97915.66;5093743;28;20047;-81
2021/07/01 04:21:12;;;;;;;5.45;3.20;;;;;;;18.58;62.45;97917.78;5111290;28;20095;-80
2021/07/01 04:23:38;;;;;;;7.07;3.08;;;;;;;18.64;62.33;97910.78;5114785;28;20032;-80
2021/07/01 04:26:03;;;;;;;5.55;3.33;;;;;;;18.67;62.49;97912.03;5115054;28;20480;-80
2021/07/01 04:28:28;;;;;;;9.25;3.90;;;;;;;18.67;62.43;97906.50;5095805;28;20024;-80
2021/07/01 04:30:54;;;;;;;6.70;4.40;;;;;;;18.63;62.24;97900.84;5113532;28;20089;-81
2021/07/01 04:33:19;;;;;;;5.43;4.00;;;;;;;18.60;62.16;97899.59;5099307;28;20031;-79
2021/07/01 04:35:48;;;;;;;4.50;3.80;;;;;;;18.63;62.33;97908.38;5100088;28;20385;-80
2021/07/01 04:38:15;;;;;;;6.15;3.78;;;;;;;18.68;62.43;97902.53;5110041;28;20035;-81
2021/07/01 04:40:41;;;;;;;6.50;4.00;;;;;;;18.82;62.41;97907.59;5112827;28;20047;-80
2021/07/01 04:43:06;;;;;;;6.10;3.38;;;;;;;18.95;62.52;97909.03;5107181;28;20031;-79
2021/07/01 04:45:32;;;;;;;6.93;3.60;;;;;;;19.03;62.45;97901.69;5091926;28;20098;-80
2021/07/01 04:47:58;;;;;;;4.85;3.40;;;;;;;19.13;62.35;97911.41;5073783;28;20035;-79
2021/07/01 04:50:23;;;;;;;3.83;3.40;;;;;;;19.18;61.94;97908.34;5091887;28;20115;-78
2021/07/01 04:52:49;;;;;;;3.80;3.00;;;;;;;19.17;61.88;97907.53;5102822;28;20123;-81
2021/07/01 04:55:14;;;;;;;5.38;3.28;;;;;;;19.19;61.79;97907.97;5107094;28;20074;-81
2021/07/01 04:57:39;;;;;;;5.07;3.08;;;;;;;19.23;61.88;97912.78;5110880;28;20043;-81
2021/07/01 05:00:06;;;;;;;5.95;3.22;;;;;;;19.25;61.63;97924.34;5112538;28;20059;-81
2021/07/01 05:02:31;;;;;;;4.38;2.95;;;;;;;19.25;61.61;97925.16;5108072;28;20027;-81
2021/07/01 05:05:04;;;;;;;5.22;3.78;;;;;;;19.31;61.88;97936.78;5091581;28;20077;-79
2021/07/01 05:07:29;;;;;;;6.32;4.05;;;;;;;19.36;61.85;97941.25;5074068;28;20043;-81
2021/07/01 05:09:55;;;;;;;5.65;4.07;;;;;;;19.39;62.00;97944.09;5092539;28;20043;-80
2021/07/01 05:12:20;;;;;;;7.70;4.85;;;;;;;19.41;61.98;97946.50;5106440;28;20040;-80
2021/07/01 05:14:45;;;;;;;8.90;6.32;;;;;;;19.43;62.19;97944.97;5112289;28;20148;-80
2021/07/01 05:17:11;;;;;;;10.27;6.65;;;;;;;19.44;62.24;97943.78;5111695;28;20114;-77
2021/07/01 05:19:36;;;;;;;9.52;7.15;;;;;;;19.42;62.65;97950.88;5111388;28;20108;-80
2021/07/01 05:22:02;;;;;;;12.57;6.75;;;;;;;19.34;62.89;97955.50;5095045;28;20058;-80
2021/07/01 05:24:27;;;;;;;9.95;6.63;;;;;;;19.31;63.09;97956.25;5091729;28;20052;-80
2021/07/01 05:26:53;;;;;;;7.63;5.75;;;;;;;19.26;63.01;97959.31;5097498;28;20031;-80
2021/07/01 05:29:18;;;;;;;9.63;5.82;;;;;;;19.17;63.48;97965.88;5083483;28;20394;-79
2021/07/01 05:31:44;;;;;;;9.25;5.80;;;;;;;19.09;63.77;97974.47;5104815;28;20031;-80
2021/07/01 05:34:09;;;;;;;9.25;5.45;;;;;;;19.00;63.71;97967.13;5093832;28;20023;-79
2021/07/01 05:36:34;;;;;;;8.18;5.82;;;;;;;18.94;64.02;97967.75;5090763;28;20024;-79
2021/07/01 05:39:00;;;;;;;11.13;5.72;;;;;;;18.92;64.23;97970.91;5092699;28;20023;-79
2021/07/01 05:41:25;;;;;;;9.40;5.95;;;;;;;18.94;64.56;97968.59;5094114;28;20659;-78
2021/07/01 05:43:50;;;;;;;6.60;5.88;;;;;;;19.06;64.89;97969.63;5107502;28;20036;-79
2021/07/01 05:46:16;;;;;;;11.18;6.20;;;;;;;19.20;64.79;97964.38;5101802;28;20020;-78
2021/07/01 05:48:42;;;;;;;8.35;5.78;;;;;;;19.32;64.85;97971.75;5091850;28;20493;-79
2021/07/01 05:51:08;;;;;;;8.85;5.95;;;;;;;19.41;64.83;97971.50;5097134;28;20024;-79
2021/07/01 05:56:38;;;;;;;10.75;5.93;;;;;;;19.40;65.06;97976.28;5076221;28;20055;-78
2021/07/01 05:59:05;;;;;;;10.90;5.68;;;;;;;19.43;65.41;97969.16;5104210;28;20039;-80
2021/07/01 06:01:30;;;;;;;10.18;5.70;;;;;;;19.52;65.31;97975.31;5082647;28;20120;-79
2021/07/01 06:03:55;;;;;;;7.43;4.93;;;;;;;19.57;65.27;97971.41;5095810;28;20061;-78
2021/07/01 06:06:24;;;;;;;6.05;4.70;;;;;;;19.54;65.31;97967.41;5095563;28;20031;-78
2021/07/01 06:08:49;;;;;;;6.93;5.30;;;;;;;19.51;65.44;97967.34;5095932;28;20040;-78
2021/07/01 06:11:16;;;;;;;7.00;5.43;;;;;;;19.44;65.34;97960.47;5095808;28;20043;-79
2021/07/01 06:13:42;;;;;;;8.27;5.35;;;;;;;19.46;65.53;97960.91;5077249;28;20025;-79
2021/07/01 06:16:11;;;;;;;6.13;5.50;;;;;;;19.53;65.84;97971.38;5095292;28;20392;-79
2021/07/01 06:18:38;;;;;;;9.23;5.82;;;;;;;19.58;66.02;97970.25;5095301;28;20043;-78
2021/07/01 06:21:04;;;;;;;7.68;5.47;;;;;;;19.60;65.67;97974.28;5110028;28;20038;-79
2021/07/01 06:23:29;;;;;;;8.57;5.32;;;;;;;19.67;65.64;97975.59;5098183;28;20056;-78
2021/07/01 06:25:56;;;;;;;6.68;4.70;;;;;;;19.71;65.43;97976.47;5095502;28;20032;-79
2021/07/01 06:28:22;;;;;;;7.70;5.25;;;;;;;19.69;65.50;97968.47;5099269;28;20559;-79
2021/07/01 06:30:48;;;;;;;6.28;4.32;;;;;;;19.70;65.74;97975.66;5101544;28;20095;-80
2021/07/01 06:33:17;;;;;;;6.43;5.63;;;;;;;19.78;65.46;97976.56;5115549;28;20024;-80
2021/07/01 06:35:48;;;;;;;6.57;4.55;;;;;;;19.85;65.21;97978.69;5105434;28;20028;-79
2021/07/01 06:38:15;;;;;;;9.02;5.18;;;;;;;19.90;65.28;97978.44;5102775;28;20414;-79
2021/07/01 06:40:43;;;;;;;6.32;4.95;;;;;;;20.03;65.39;97982.63;5114487;28;20051;-78
2021/07/01 06:43:12;;;;;;;7.55;5.32;;;;;;;20.06;64.84;97981.88;5101364;28;20019;-77
2021/07/01 06:45:38;;;;;;;5.68;4.90;;;;;;;20.12;64.71;97993.53;5082860;28;20020;-80
2021/07/01 06:48:05;;;;;;;6.28;5.20;;;;;;;20.17;64.70;97992.41;5100266;28;20092;-81
2021/07/01 06:50:30;;;;;;;6.70;4.53;;;;;;;20.15;64.40;97992.78;5095485;28;20488;-80
2021/07/01 06:52:58;;;;;;;6.90;4.50;;;;;;;20.04;64.22;97997.34;5098563;28;20069;-81
2021/07/01 06:55:24;;;;;;;11.50;5.50;;;;;;;19.89;64.12;97994.31;5096266;28;20051;-76
2021/07/01 06:57:49;;;;;;;10.82;4.85;;;;;;;19.82;64.52;97993.34;5109842;28;20024;-76
2021/07/01 07:00:17;;;;;;;7.70;4.60;;;;;;;19.81;64.71;97980.59;5096117;28;20039;-78
2021/07/01 07:02:43;;;;;;;7.75;4.65;;;;;;;19.80;64.73;97993.69;5101253;28;20395;-75
2021/07/01 07:05:13;;;;;;;5.13;4.63;;;;;;;19.78;64.73;97993.25;5101810;28;20187;-76
2021/07/01 07:07:41;;;;;;;7.13;4.38;;;;;;;19.69;64.51;97992.72;5098387;28;20020;-77
2021/07/01 07:10:08;;;;;;;5.07;4.57;;;;;;;19.59;64.93;97994.94;5094001;28;20048;-76
2021/07/01 07:12:41;;;;;;;6.10;4.20;;;;;;;19.53;64.94;97987.25;5092696;28;20111;-77
2021/07/01 07:15:12;;;;;;;5.05;4.53;;;;;;;19.47;65.01;97989.50;5101239;28;20032;-76
2021/07/01 07:17:41;;;;;;;5.32;4.05;;;;;;;19.46;65.29;97987.91;5085780;28;20066;-81
2021/07/01 07:20:09;;;;;;;4.88;3.88;;;;;;;19.42;65.52;97996.19;5103755;28;20498;-77
2021/07/01 07:22:41;;;;;;;3.75;3.20;;;;;;;19.46;65.50;97999.03;5100407;28;20031;-76
2021/07/01 07:25:08;;;;;;;6.00;3.35;;;;;;;19.48;65.20;97991.13;5109168;28;20032;-78
2021/07/01 07:27:36;;;;;;;3.15;2.72;;;;;;;19.54;65.09;97986.88;5094651;28;20032;-79
2021/07/01 07:30:03;;;;;;;4.13;2.97;;;;;;;19.56;65.26;97986.53;5076703;28;20690;-79
2021/07/01 07:32:30;;;;;;;5.57;2.80;;;;;;;19.59;64.92;97989.38;5074441;28;20077;-74
2021/07/01 07:34:56;;;;;;;4.95;2.90;;;;;;;19.64;65.05;97999.38;5096818;28;20039;-74
2021/07/01 07:37:22;;;;;;;3.88;3.00;;;;;;;19.59;64.94;97994.94;5094902;28;20015;-76
2021/07/01 07:39:49;;;;;;;5.47;3.47;;;;;;;19.54;64.73;98002.78;5105741;28;20020;-79
2021/07/01 07:42:16;;;;;;;11.27;8.13;;;;;;;19.41;64.84;98005.69;5102516;28;20120;-78
2021/07/01 07:44:42;;;;;;;6.13;3.42;;;;;;;19.32;65.11;98003.16;5094564;28;20031;-75
2021/07/01 07:47:12;;;;;;;5.30;3.50;;;;;;;19.23;65.21;98007.31;5087977;28;20118;-77
2021/07/01 07:49:39;;;;;;;6.18;3.45;;;;;;;19.12;65.35;98007.91;5099478;28;20051;-82
2021/07/01 07:52:08;;;;;;;4.53;3.30;;;;;;;19.02;65.64;98008.47;5106120;28;20059;-77
2021/07/01 07:54:53;;;;;;;7.03;3.72;;;;;;;18.92;66.25;98004.25;5097255;28;20106;-79
2021/07/01 07:57:22;;;;;;;5.13;3.67;;;;;;;18.87;65.86;98018.44;5080703;28;20031;-80
2021/07/01 07:59:51;;;;;;;5.70;3.97;;;;;;;18.84;65.97;98014.41;5095264;28;20039;-78
2021/07/01 08:02:37;;;;;;;4.00;3.60;;;;;;;18.81;65.87;98006.78;5075836;28;20043;-78
2021/07/01 08:05:03;;;;;;;4.10;3.70;;;;;;;18.79;65.89;98016.66;5095695;28;20467;-79
2021/07/01 08:07:30;;;;;;;7.13;4.30;;;;;;;18.71;65.95;98016.50;5094004;28;20063;-75
2021/07/01 08:09:59;;;;;;;10.93;4.53;;;;;;;18.68;66.27;98008.09;5095179;28;20051;-76
2021/07/01 08:12:27;;;;;;;6.85;4.65;;;;;;;18.76;66.57;98012.63;5099096;28;20035;-76
2021/07/01 08:14:53;;;;;;;9.15;5.43;;;;;;;18.85;66.63;98013.22;5098301;28;20494;-77
2021/07/01 08:17:19;;;;;;;5.38;4.88;;;;;;;18.99;66.52;98015.53;5106321;28;20407;-76
2021/07/01 08:19:46;;;;;;;5.75;5.25;;;;;;;19.12;66.88;98018.19;5106157;28;20079;-79
2021/07/01 08:22:12;;;;;;;7.03;6.07;;;;;;;19.21;66.53;98018.78;5093686;28;20043;-78
2021/07/01 08:24:38;;;;;;;6.20;5.60;;;;;;;19.38;66.41;98008.41;5087872;28;20111;-75
2021/07/01 08:27:03;;;;;;;9.15;6.45;;;;;;;19.41;65.95;98016.00;5091805;28;20622;-77
2021/07/01 08:29:29;;;;;;;6.78;5.18;;;;;;;19.45;66.32;98011.31;5090526;28;20032;-75
2021/07/01 08:32:05;;;;;;;5.57;5.18;;;;;;;19.54;66.13;98011.91;5078926;28;20123;-75
2021/07/01 08:34:34;;;;;;;6.45;5.43;;;;;;;19.65;65.82;98012.09;5093430;28;20020;-74
2021/07/01 08:36:59;;;;;;;10.93;7.97;;;;;;;19.78;65.67;98002.44;5092194;28;20024;-73
2021/07/01 08:39:29;;;;;;;9.57;7.57;;;;;;;19.90;65.67;98001.47;5101337;28;20055;-76
2021/07/01 08:41:56;;;;;;;9.25;7.35;;;;;;;19.96;65.43;98006.75;5097295;28;20028;-77
2021/07/01 08:44:29;;;;;;;5.85;5.35;;;;;;;20.00;65.30;98002.84;5105057;28;20085;-75
2021/07/01 08:47:09;;;;;;;6.88;5.00;;;;;;;20.07;65.12;98004.97;5090032;28;20828;-75
2021/07/01 08:49:53;;;;;;;6.45;4.80;;;;;;;20.11;65.14;98013.38;5093869;28;20633;-74
2021/07/01 08:52:26;;;;;;;5.15;4.65;;;;;;;20.15;65.07;98009.47;5103648;28;20043;-74
2021/07/01 08:55:06;;;;;;;5.35;4.93;;;;;;;20.25;65.17;98010.00;5096037;28;20085;-76
2021/07/01 08:57:36;;;;;;;5.68;5.10;;;;;;;20.27;65.32;98005.69;5104434;28;20519;-75
2021/07/01 09:00:07;;;;;;;5.97;4.97;;;;;;;20.34;65.25;98005.81;5095010;28;20027;-76
2021/07/01 09:02:41;;;;;;;6.50;5.57;;;;;;;20.55;65.41;98012.91;5099458;28;20040;-76
2021/07/01 09:05:17;;;;;;;6.20;5.70;;;;;;;20.62;64.94;98015.78;5077459;28;20475;-76
2021/07/01 09:07:49;;;;;;;6.38;5.78;;;;;;;20.65;64.75;98011.44;5097819;28;20020;-80
2021/07/01 09:10:15;;;;;;;9.13;5.70;;;;;;;20.66;64.70;98016.66;5094328;28;20048;-76
2021/07/01 09:12:43;;;;;;;6.65;5.95;;;;;;;20.75;64.83;98016.38;5100939;28;20020;-77
2021/07/01 09:15:10;;;;;;;7.57;6.05;;;;;;;20.88;64.28;98019.78;5106900;28;20015;-76
2021/07/01 09:17:40;;;;;;;6.30;5.70;;;;;;;20.96;64.43;98020.69;5094642;28;20070;-79
2021/07/01 09:20:11;;;;;;;7.40;5.65;;;;;;;20.97;63.70;98025.88;5101850;28;20054;-78
2021/07/01 09:22:37;;;;;;;6.65;5.63;;;;;;;21.08;63.88;98034.38;5102592;28;20038;-78
2021/07/01 09:25:03;;;;;;;8.13;6.22;;;;;;;21.26;63.66;98033.84;5096907;28;20107;-84
2021/07/01 09:27:30;;;;;;;8.95;7.50;;;;;;;21.40;63.44;98022.84;5099731;28;20035;-83
2021/07/01 09:29:58;;;;;;;9.02;8.13;;;;;;;21.44;62.80;98024.88;5105724;28;20107;-81
2021/07/01 09:32:27;;;;;;;11.02;9.65;;;;;;;21.45;62.88;98023.69;5103236;28;20491;-79
2021/07/01 09:34:52;;;;;;;14.00;10.60;;;;;;;21.52;63.14;98021.00;5093934;28;20111;-79
2021/07/01 09:37:21;;;;;;;13.50;7.95;;;;;;;21.62;63.19;98017.56;5087726;28;20114;-76
2021/07/01 09:39:48;;;;;;;11.10;8.75;;;;;;;21.83;62.85;98011.41;5092845;28;20490;-76
2021/07/01 09:42:14;;;;;;;9.90;8.82;;;;;;;22.08;63.17;98004.47;5088638;28;20028;-78
2021/07/01 09:44:39;;;;;;;9.10;7.78;;;;;;;22.29;63.05;97993.47;5096688;28;20042;-77
2021/07/01 09:47:09;;;;;;;11.55;7.78;;;;;;;22.50;62.73;97991.25;5099144;28;20028;-79
2021/07/01 09:49:43;;;;;;;9.25;7.75;;;;;;;22.64;62.16;97984.97;5095691;28;20032;-79
2021/07/01 09:52:15;;;;;;;7.88;7.18;;;;;;;22.70;61.37;97977.81;5102388;28;20031;-78
2021/07/01 09:54:47;;;;;;;8.27;7.03;;;;;;;22.70;61.41;97975.84;5087976;28;20082;-77
2021/07/01 09:57:30;;;;;;;7.18;6.07;;;;;;;22.74;60.99;97973.88;5100596;28;20054;-79
2021/07/01 09:59:59;;;;;;;7.03;4.90;;;;;;;22.85;60.43;97973.94;5093347;28;20028;-81
2021/07/01 10:02:25;;;;;;;6.93;5.60;;;;;;;22.96;60.33;97964.81;5093729;28;20028;-78
2021/07/01 10:04:52;;;;;;;5.90;4.68;;;;;;;23.01;60.35;97968.03;5092372;28;20440;-79
2021/07/01 10:07:22;;;;;;;6.00;4.60;;;;;;;23.14;59.76;97976.06;5101421;28;20039;-80
2021/07/01 10:09:55;;;;;;;4.25;3.90;;;;;;;23.30;59.57;97981.38;5093823;28;20083;-80
2021/07/01 10:12:24;;;;;;;5.05;3.85;;;;;;;23.45;59.26;97983.00;5108817;28;20436;-81
2021/07/01 10:14:54;;;;;;;4.78;4.07;;;;;;;23.59;59.01;97981.44;5095321;28;20472;-78
2021/07/01 10:17:21;;;;;;;4.10;3.70;;;;;;;23.69;58.67;97977.88;5078640;28;20546;-79
2021/07/01 10:19:49;;;;;;;3.50;3.20;;;;;;;23.72;58.21;97968.69;5090760;28;20037;-78
2021/07/01 10:22:18;;;;;;;3.47;3.08;;;;;;;23.76;58.08;97977.09;5075028;28;20362;-83
2021/07/01 10:24:50;;;;;;;4.57;2.90;;;;;;;23.84;57.43;97961.91;5092573;28;20361;-79
2021/07/01 10:27:31;;;;;;;3.80;3.50;;;;;;;23.69;57.33;97961.09;5096509;28;20053;-80
2021/07/01 10:29:59;;;;;;;4.80;3.25;;;;;;;23.61;57.10;97960.28;5098538;28;20362;-82
2021/07/01 10:32:45;;;;;;;3.65;3.15;;;;;;;23.58;56.95;97965.84;5090315;28;20036;-81
2021/07/01 10:35:24;;;;;;;3.10;2.90;;;;;;;23.69;57.04;97968.66;5096622;28;20032;-83
2021/07/01 10:38:01;;;;;;;5.13;2.83;;;;;;;23.92;56.96;97976.72;5090603;28;20099;-79
2021/07/01 10:40:27;;;;;;;2.58;2.38;;;;;;;24.22;56.77;97961.56;5083462;28;21141;-80
2021/07/01 10:42:56;;;;;;;3.15;2.78;;;;;;;24.50;56.19;97962.75;5102302;28;20043;-79
2021/07/01 10:45:23;;;;;;;3.20;2.20;;;;;;;24.72;55.23;97973.94;5089346;28;20024;-78
2021/07/01 10:47:48;;;;;;;2.55;2.30;;;;;;;24.83;55.58;97963.50;5095812;28;20555;-80
2021/07/01 10:50:23;;;;;;;3.20;2.90;;;;;;;24.87;55.05;97960.69;5097741;28;20027;-81
2021/07/01 10:52:49;;;;;;;4.05;2.70;;;;;;;24.92;54.38;97965.88;5095061;28;20031;-79
2021/07/01 10:55:16;;;;;;;5.60;2.70;;;;;;;24.81;53.32;97957.50;5099376;28;20157;-79
2021/07/01 10:57:56;;;;;;;3.30;2.42;;;;;;;24.66;53.40;97963.09;5093672;28;20123;-81
2021/07/01 11:00:45;;;;;;;3.17;2.50;;;;;;;24.52;53.57;97957.53;5092869;28;20128;-81
2021/07/01 11:03:18;;;;;;;5.13;2.70;;;;;;;24.46;53.14;97956.34;5095464;28;20054;-82
2021/07/01 11:05:44;;;;;;;3.20;2.80;;;;;;;24.38;53.40;97947.94;5085188;28;20074;-83
2021/07/01 11:08:24;;;;;;;3.08;2.72;;;;;;;24.30;52.77;97953.97;5099347;28;20018;-80
2021/07/01 11:10:51;;;;;;;4.55;2.10;;;;;;;24.19;52.82;97956.78;5105571;28;20038;-79
2021/07/01 11:13:18;;;;;;;2.53;2.05;;;;;;;24.13;52.84;97959.16;5098007;28;20472;-79
2021/07/01 11:16:03;;;;;;;2.67;1.90;;;;;;;24.06;52.37;97953.53;5078302;28;20122;-82
2021/07/01 11:18:40;;;;;;;2.25;1.83;;;;;;;23.92;52.09;97954.31;5080758;28;20036;-81
2021/07/01 11:21:14;;;;;;;2.53;1.80;;;;;;;23.77;52.23;97957.09;5101265;28;20039;-77
2021/07/01 11:23:41;;;;;;;2.28;1.80;;;;;;;23.62;51.10;97947.88;5087400;28;20399;-77
2021/07/01 11:26:26;;;;;;;4.80;1.90;;;;;;;23.67;51.59;97943.88;5099971;28;20031;-82
2021/07/01 11:28:52;;;;;;;3.10;1.60;;;;;;;23.84;51.39;97947.13;5101460;28;20121;-81
2021/07/01 11:31:18;;;;;;;2.42;1.30;;;;;;;24.08;51.38;97937.94;5096941;28;20527;-78
2021/07/01 11:33:51;;;;;;;3.90;1.35;;;;;;;24.22;51.58;97934.34;5111472;28;20118;-77
2021/07/01 11:36:19;;;;;;;3.35;1.30;;;;;;;24.40;49.93;97938.31;5104555;28;20122;-77